2O6 weather

Chowchilla Airport
Chowchilla, California, United States

Public forecast

Using degrees Fahrenheit for public forecast. Weather courtesy of forecast.io.

METAR (pilot weather report)

Closest report is Madera Municipal Airport, 9.9 nm (18.2 km) SE. Retrieved 2019/07/17 03:53 UTC (29 minutes ago):

KMAE 170353Z AUTO 29012G21KT 10SM CLR 28/11 A2983 RMK AO2 SLP097 T02780106

TAF (pilot weather forecast)

Forecast is more than 12 hours old.

Closest forecast is Merced Regional Macready Field, 16.4 nm (30.4 km) NW. Retrieved 2019/07/16 00:22 UTC (1 day ago):

TAF KMCE 162320Z 1700/1724 32010KT P6SM SKC FM170600 32006KT P6SM SKC